Terminal Aerodrome Forecast
Issued by NWS Mt. Holly, NJ

Home | Current Version | Previous Version | Text Only | Print | Product List | Glossary On
Versions: 1 2 3 4 5 6 7 8 9 10 11 12 13 14 15 16 17 18 19 20 21 22 23 24 25 26 27 28 29 30 31 32 33 34 35 36 37 38 39 40 41 42
000
FTUS41 KPHI 050549
TAFABE
TAF
KABE 050549Z 0506/0606 VRB03KT P6SM SCT100 WS020/23045KT
     FM050900 VRB03KT P6SM BKN100
     FM051300 28006KT P6SM BKN100
      TEMPO 0520/0524 -SHRA BKN050
     FM060000 VRB02KT 6SM -SHRA BKN050=

USA.gov is the U.S. government's official web portal to all federal, state and local government web resources and services.